Time;durP1;ratioP1;P1;durP2;ratioP2;P2;SDS_P1;SDS_P2;PMS_P1;PMS_P2;Temp;Humidity;BMP_temperature;BMP_pressure;BME280_temperature;BME280_humidity;BME280_pressure;Samples;Min_cycle;Max_cycle;Signal;HPM_P1;HPM_P2
2022/08/18 00:00:00;;;;;;;;;7.00;7.00;;;;;;;;4997990;28;9003;-77
2022/08/18 00:02:30;;;;;;;;;10.25;10.25;;;;;;;;4995115;28;8824;-76
2022/08/18 00:04:59;;;;;;;;;9.75;9.75;;;;;;;;5000843;28;8864;-75
2022/08/18 00:07:28;;;;;;;;;10.00;8.00;;;;;;;;5000507;28;8875;-76
2022/08/18 00:09:57;;;;;;;;;8.00;8.00;;;;;;;;5002056;28;8878;-76
2022/08/18 00:12:28;;;;;;;;;9.50;9.50;;;;;;;;5001139;28;9958;-76
2022/08/18 00:14:56;;;;;;;;;9.75;9.00;;;;;;;;5001841;28;8852;-75
2022/08/18 00:17:24;;;;;;;;;4.75;4.75;;;;;;;;5000842;28;8880;-75
2022/08/18 00:19:52;;;;;;;;;7.50;7.50;;;;;;;;5001880;28;8875;-75
2022/08/18 00:22:21;;;;;;;;;7.25;7.25;;;;;;;;5001118;28;8895;-76
2022/08/18 00:24:50;;;;;;;;;10.25;9.00;;;;;;;;4995345;28;9728;-76
2022/08/18 00:27:21;;;;;;;;;9.75;9.75;;;;;;;;4997387;28;8864;-76
2022/08/18 00:29:52;;;;;;;;;10.00;10.00;;;;;;;;5001376;28;8899;-76
2022/08/18 00:32:23;;;;;;;;;9.25;9.25;;;;;;;;4998783;28;8832;-76
2022/08/18 00:34:50;;;;;;;;;8.25;8.25;;;;;;;;4998235;28;8864;-76
2022/08/18 00:37:18;;;;;;;;;9.00;7.50;;;;;;;;4999023;28;8933;-76
2022/08/18 00:39:45;;;;;;;;;11.00;8.75;;;;;;;;5002096;28;8970;-76
2022/08/18 00:42:15;;;;;;;;;6.00;6.00;;;;;;;;5001938;28;9004;-76
2022/08/18 00:44:42;;;;;;;;;9.00;9.00;;;;;;;;5001107;28;9650;-76
2022/08/18 00:47:11;;;;;;;;;8.00;8.00;;;;;;;;5001474;28;8894;-76
2022/08/18 00:49:41;;;;;;;;;11.00;9.25;;;;;;;;4999135;28;8906;-76
2022/08/18 00:52:10;;;;;;;;;11.75;9.75;;;;;;;;5000110;28;9594;-76
2022/08/18 00:54:39;;;;;;;;;9.50;9.50;;;;;;;;4999711;28;8973;-76
2022/08/18 00:57:07;;;;;;;;;7.50;7.50;;;;;;;;4999833;28;8979;-77
2022/08/18 00:59:41;;;;;;;;;11.25;11.25;;;;;;;;5000028;28;9682;-76
2022/08/18 01:02:15;;;;;;;;;11.50;10.25;;;;;;;;5001471;28;8816;-76
2022/08/18 01:04:45;;;;;;;;;10.00;10.00;;;;;;;;4999108;28;8902;-75
2022/08/18 01:07:19;;;;;;;;;10.25;9.25;;;;;;;;4999058;28;8888;-76
2022/08/18 01:09:48;;;;;;;;;8.25;8.25;;;;;;;;4999903;28;8880;-75
2022/08/18 01:12:15;;;;;;;;;12.00;10.00;;;;;;;;4999453;28;9625;-75
2022/08/18 01:14:43;;;;;;;;;13.00;13.00;;;;;;;;5000382;28;8946;-75
2022/08/18 01:22:54;;;;;;;;;14.00;14.00;;;;;;;;4960059;28;1094518;-76
2022/08/18 01:28:07;;;;;;;;;17.25;15.25;;;;;;;;5001757;28;9610;-75
2022/08/18 01:30:47;;;;;;;;;15.50;13.00;;;;;;;;5001928;28;8804;-75
2022/08/18 01:33:15;;;;;;;;;16.75;14.50;;;;;;;;4999870;28;8906;-76
2022/08/18 01:35:48;;;;;;;;;14.25;12.75;;;;;;;;4998326;28;8919;-76
2022/08/18 01:38:21;;;;;;;;;15.50;15.00;;;;;;;;5001483;28;8864;-76
2022/08/18 01:40:49;;;;;;;;;16.00;16.00;;;;;;;;4998412;28;8872;-76
2022/08/18 01:43:17;;;;;;;;;17.50;17.50;;;;;;;;4997703;28;8890;-76
2022/08/18 01:45:44;;;;;;;;;18.00;18.00;;;;;;;;4999654;28;8911;-76
2022/08/18 01:48:12;;;;;;;;;18.75;18.00;;;;;;;;5001114;28;8898;-76
2022/08/18 01:50:40;;;;;;;;;19.75;18.00;;;;;;;;5002496;28;8884;-76
2022/08/18 01:53:10;;;;;;;;;17.50;17.50;;;;;;;;4999165;28;8852;-76
2022/08/18 01:55:43;;;;;;;;;17.75;17.75;;;;;;;;4999579;28;10229;-76
2022/08/18 01:58:11;;;;;;;;;16.00;16.00;;;;;;;;5002298;28;8884;-76
2022/08/18 02:00:38;;;;;;;;;14.00;11.50;;;;;;;;5000873;28;8846;-75
2022/08/18 02:03:08;;;;;;;;;17.50;17.50;;;;;;;;4997919;28;8864;-76
2022/08/18 02:05:38;;;;;;;;;15.50;15.50;;;;;;;;4998752;28;8952;-76
2022/08/18 02:08:06;;;;;;;;;18.25;15.50;;;;;;;;4998185;28;8895;-76
2022/08/18 02:10:34;;;;;;;;;18.75;17.50;;;;;;;;5003814;28;8876;-76
2022/08/18 02:13:03;;;;;;;;;17.25;17.00;;;;;;;;5001316;28;8978;-76
2022/08/18 02:15:31;;;;;;;;;25.75;21.25;;;;;;;;5003132;28;8883;-77
2022/08/18 02:17:59;;;;;;;;;22.50;20.00;;;;;;;;5003231;28;8892;-76
2022/08/18 02:20:26;;;;;;;;;24.50;21.50;;;;;;;;5004144;28;8868;-77
2022/08/18 02:22:54;;;;;;;;;23.25;21.50;;;;;;;;5001965;28;8876;-78
2022/08/18 02:25:21;;;;;;;;;26.75;24.25;;;;;;;;5002197;28;8872;-76
2022/08/18 02:27:49;;;;;;;;;26.75;21.00;;;;;;;;5001871;28;8895;-78
2022/08/18 02:30:21;;;;;;;;;27.50;24.50;;;;;;;;5006794;28;8914;-78
2022/08/18 02:32:51;;;;;;;;;29.25;27.50;;;;;;;;5004008;28;9026;-77
2022/08/18 02:35:19;;;;;;;;;29.50;29.50;;;;;;;;5003484;28;8860;-77
2022/08/18 02:37:47;;;;;;;;;29.25;27.25;;;;;;;;5003273;28;8892;-76
2022/08/18 02:40:15;;;;;;;;;37.25;34.00;;;;;;;;5003251;28;8864;-76
2022/08/18 02:42:42;;;;;;;;;36.25;34.00;;;;;;;;5004340;28;8872;-77
2022/08/18 02:45:11;;;;;;;;;31.00;30.75;;;;;;;;4999271;28;8840;-76
2022/08/18 02:47:40;;;;;;;;;39.50;36.00;;;;;;;;5004424;28;8904;-76
2022/08/18 02:50:09;;;;;;;;;39.25;35.00;;;;;;;;5004221;28;8884;-77
2022/08/18 02:52:36;;;;;;;;;34.75;32.50;;;;;;;;5002149;28;8994;-76
2022/08/18 02:55:04;;;;;;;;;39.00;34.75;;;;;;;;5002759;28;8872;-76
2022/08/18 02:57:32;;;;;;;;;43.50;38.25;;;;;;;;5002217;28;8872;-76
2022/08/18 03:00:00;;;;;;;;;43.25;38.00;;;;;;;;5001543;28;8888;-76
2022/08/18 03:02:28;;;;;;;;;42.25;36.25;;;;;;;;5003687;28;8786;-76
2022/08/18 03:04:57;;;;;;;;;38.67;36.00;;;;;;;;5001152;28;8906;-76
2022/08/18 03:07:24;;;;;;;;;38.50;34.25;;;;;;;;5000254;28;8964;-77
2022/08/18 03:09:51;;;;;;;;;39.25;35.75;;;;;;;;5002312;28;8891;-77
2022/08/18 03:12:18;;;;;;;;;44.00;39.00;;;;;;;;5002626;28;8864;-77
2022/08/18 03:14:46;;;;;;;;;42.75;36.75;;;;;;;;5001686;28;8965;-75
2022/08/18 03:17:13;;;;;;;;;45.00;38.00;;;;;;;;5001496;28;8877;-75
2022/08/18 03:19:44;;;;;;;;;50.00;42.67;;;;;;;;5002812;28;8949;-76
2022/08/18 03:22:13;;;;;;;;;50.33;41.33;;;;;;;;5001425;28;9084;-75
2022/08/18 03:24:40;;;;;;;;;51.00;40.33;;;;;;;;5002777;28;9103;-75
2022/08/18 03:27:08;;;;;;;;;40.50;34.50;;;;;;;;5003043;28;9207;-75
2022/08/18 03:29:36;;;;;;;;;41.67;37.33;;;;;;;;5006238;28;9363;-75
2022/08/18 03:32:06;;;;;;;;;44.67;38.33;;;;;;;;5003047;28;8979;-76
2022/08/18 03:34:34;;;;;;;;;45.00;38.00;;;;;;;;5001089;28;9067;-76
2022/08/18 03:37:01;;;;;;;;;46.33;38.33;;;;;;;;5005352;28;8960;-75
2022/08/18 03:39:30;;;;;;;;;38.67;36.00;;;;;;;;5004557;28;9118;-75
2022/08/18 03:41:58;;;;;;;;;40.00;37.00;;;;;;;;5003477;28;8975;-75
2022/08/18 03:44:26;;;;;;;;;37.25;34.75;;;;;;;;5003180;28;8888;-75
2022/08/18 03:46:53;;;;;;;;;33.25;32.75;;;;;;;;5008483;28;8878;-75
2022/08/18 03:49:21;;;;;;;;;33.25;31.00;;;;;;;;5003457;28;9661;-76
2022/08/18 03:51:50;;;;;;;;;47.33;38.33;;;;;;;;5004428;28;8857;-76
2022/08/18 03:54:18;;;;;;;;;38.00;33.00;;;;;;;;5002950;28;8992;-75
2022/08/18 03:56:49;;;;;;;;;33.75;32.00;;;;;;;;5004213;28;8979;-75
2022/08/18 03:59:19;;;;;;;;;38.25;31.75;;;;;;;;5004503;28;8883;-76
2022/08/18 04:01:47;;;;;;;;;33.00;31.50;;;;;;;;5003228;28;8820;-76
2022/08/18 04:04:17;;;;;;;;;30.25;29.50;;;;;;;;5003907;28;8929;-76
2022/08/18 04:06:48;;;;;;;;;33.25;30.00;;;;;;;;5000590;28;8907;-76
2022/08/18 04:09:17;;;;;;;;;34.25;32.50;;;;;;;;5002759;28;8910;-76
2022/08/18 04:11:47;;;;;;;;;32.25;28.75;;;;;;;;5001741;28;9011;-76
2022/08/18 04:14:17;;;;;;;;;28.75;28.75;;;;;;;;5003573;28;9023;-77
2022/08/18 04:16:44;;;;;;;;;23.00;21.25;;;;;;;;5004155;28;8883;-76
2022/08/18 04:19:12;;;;;;;;;36.67;33.67;;;;;;;;5003635;28;8879;-77
2022/08/18 04:21:41;;;;;;;;;39.33;33.67;;;;;;;;5003083;28;8976;-75
2022/08/18 04:24:10;;;;;;;;;37.67;34.67;;;;;;;;5000763;28;9065;-74
2022/08/18 04:26:40;;;;;;;;;37.33;34.33;;;;;;;;5004113;28;9251;-76
2022/08/18 04:29:10;;;;;;;;;49.67;43.00;;;;;;;;5006116;28;9114;-76
2022/08/18 04:31:38;;;;;;;;;40.33;35.67;;;;;;;;5000904;28;9429;-76
2022/08/18 04:34:06;;;;;;;;;45.00;36.00;;;;;;;;5001623;28;9066;-76
2022/08/18 04:36:35;;;;;;;;;42.33;38.00;;;;;;;;4999563;28;9188;-76
2022/08/18 04:39:03;;;;;;;;;43.67;37.33;;;;;;;;5000228;28;9149;-76
2022/08/18 04:41:31;;;;;;;;;39.33;35.67;;;;;;;;5001625;28;9340;-76
2022/08/18 04:44:00;;;;;;;;;40.33;35.00;;;;;;;;5001069;28;9230;-76
2022/08/18 04:46:30;;;;;;;;;44.00;36.00;;;;;;;;5005254;28;9037;-76
2022/08/18 04:48:59;;;;;;;;;47.33;39.67;;;;;;;;5001949;28;9310;-76
2022/08/18 04:51:28;;;;;;;;;44.33;36.67;;;;;;;;5002075;28;9503;-77
2022/08/18 04:53:55;;;;;;;;;49.33;39.67;;;;;;;;4997790;28;9281;-76
2022/08/18 04:56:25;;;;;;;;;46.00;38.33;;;;;;;;5002873;28;9093;-76
2022/08/18 04:58:54;;;;;;;;;39.33;35.67;;;;;;;;5002297;28;9355;-76
2022/08/18 05:01:23;;;;;;;;;56.67;43.00;;;;;;;;5002434;28;9342;-76
2022/08/18 05:03:54;;;;;;;;;51.00;42.00;;;;;;;;5000429;28;9435;-75
2022/08/18 05:06:24;;;;;;;;;51.00;40.00;;;;;;;;4996789;28;9424;-76
2022/08/18 05:08:52;;;;;;;;;52.33;42.67;;;;;;;;5001588;28;9423;-75
2022/08/18 05:11:21;;;;;;;;;49.00;41.00;;;;;;;;5000584;28;9412;-76
2022/08/18 05:13:49;;;;;;;;;48.33;39.67;;;;;;;;4998931;28;9541;-76
2022/08/18 05:16:19;;;;;;;;;47.33;39.33;;;;;;;;4999088;28;9420;-77
2022/08/18 05:18:47;;;;;;;;;47.33;37.67;;;;;;;;5002122;28;9267;-78
2022/08/18 05:21:16;;;;;;;;;49.33;42.00;;;;;;;;4998957;28;9391;-77
2022/08/18 05:23:45;;;;;;;;;49.33;42.00;;;;;;;;4998317;28;9441;-77
2022/08/18 05:26:13;;;;;;;;;43.33;39.00;;;;;;;;5003788;28;9405;-77
2022/08/18 05:28:41;;;;;;;;;50.75;42.75;;;;;;;;4998125;28;9295;-77
2022/08/18 05:31:10;;;;;;;;;46.33;39.33;;;;;;;;5002076;28;9401;-76
2022/08/18 05:33:39;;;;;;;;;51.00;42.00;;;;;;;;4999165;28;9347;-77
2022/08/18 05:36:13;;;;;;;;;57.00;43.67;;;;;;;;5004267;28;9368;-76
2022/08/18 05:38:55;;;;;;;;;54.67;45.67;;;;;;;;5000709;28;9279;-76
2022/08/18 05:41:26;;;;;;;;;55.00;44.33;;;;;;;;4993543;28;9349;-77
2022/08/18 05:43:55;;;;;;;;;55.33;44.67;;;;;;;;5001629;28;9524;-77
2022/08/18 05:46:26;;;;;;;;;57.50;47.25;;;;;;;;4996948;28;10092;-77
2022/08/18 05:48:54;;;;;;;;;62.25;50.00;;;;;;;;5000030;28;9554;-77
2022/08/18 05:51:27;;;;;;;;;54.67;45.67;;;;;;;;5000260;28;9771;-77
2022/08/18 05:56:49;;;;;;;;;59.67;48.00;;;;;;;;5001427;28;9156;-79
2022/08/18 05:59:27;;;;;;;;;57.00;47.33;;;;;;;;4997909;28;9803;-78
2022/08/18 06:01:59;;;;;;;;;61.33;48.00;;;;;;;;5002310;28;10091;-78
2022/08/18 06:04:43;;;;;;;;;51.00;42.33;;;;;;;;5000618;28;9453;-78
2022/08/18 06:07:13;;;;;;;;;51.00;43.33;;;;;;;;5001215;28;9287;-76
2022/08/18 06:09:46;;;;;;;;;55.00;46.75;;;;;;;;5002203;28;10153;-81
2022/08/18 06:12:21;;;;;;;;;55.67;46.33;;;;;;;;5001353;28;9423;-76
2022/08/18 06:14:52;;;;;;;;;59.50;50.25;;;;;;;;4998811;28;9379;-78
2022/08/18 06:17:56;;;;;;;;;59.75;47.75;;;;;;;;4998323;28;9518;-78
2022/08/18 06:20:29;;;;;;;;;62.67;50.33;;;;;;;;4968390;28;9605;-78
2022/08/18 06:23:04;;;;;;;;;56.67;46.00;;;;;;;;4968722;28;9364;-80
2022/08/18 06:25:39;;;;;;;;;57.67;48.00;;;;;;;;4974661;28;9747;-82
2022/08/18 06:28:09;;;;;;;;;56.00;45.00;;;;;;;;4972868;28;9288;-79
2022/08/18 06:30:49;;;;;;;;;60.67;48.67;;;;;;;;4971867;28;9076;-79
2022/08/18 06:33:35;;;;;;;;;57.33;45.67;;;;;;;;4998189;28;9530;-84
2022/08/18 06:36:07;;;;;;;;;56.33;46.00;;;;;;;;4997857;28;9066;-79
2022/08/18 06:38:47;;;;;;;;;60.50;47.75;;;;;;;;4996096;28;8934;-83
2022/08/18 06:41:19;;;;;;;;;57.33;46.67;;;;;;;;4998773;28;8876;-82
2022/08/18 06:43:58;;;;;;;;;57.00;45.25;;;;;;;;4998583;28;8991;-80
2022/08/18 06:46:36;;;;;;;;;59.25;46.00;;;;;;;;4991713;28;8868;-79
2022/08/18 06:49:07;;;;;;;;;58.00;47.00;;;;;;;;4996867;28;9740;-78
2022/08/18 06:51:38;;;;;;;;;55.00;44.00;;;;;;;;4996433;28;8917;-79
2022/08/18 06:54:08;;;;;;;;;57.25;46.25;;;;;;;;4995310;28;8954;-77
2022/08/18 06:56:47;;;;;;;;;58.33;47.33;;;;;;;;4997277;28;8965;-83
2022/08/18 06:59:26;;;;;;;;;58.75;47.00;;;;;;;;4998308;28;9017;-77
2022/08/18 07:01:59;;;;;;;;;56.00;45.00;;;;;;;;4997886;28;8836;-78
2022/08/18 07:04:44;;;;;;;;;54.50;46.25;;;;;;;;4999533;28;8962;-79
2022/08/18 07:07:19;;;;;;;;;54.25;44.25;;;;;;;;4999663;28;8864;-78
2022/08/18 07:09:50;;;;;;;;;60.25;48.25;;;;;;;;5000644;28;8899;-77
2022/08/18 07:12:25;;;;;;;;;60.75;45.75;;;;;;;;5000924;28;8880;-78
2022/08/18 07:14:56;;;;;;;;;58.25;46.25;;;;;;;;5000097;28;8903;-78
2022/08/18 07:17:27;;;;;;;;;53.00;45.00;;;;;;;;5002425;28;9027;-77
2022/08/18 07:20:00;;;;;;;;;55.00;45.25;;;;;;;;4996119;28;8904;-76
2022/08/18 07:22:28;;;;;;;;;56.00;46.50;;;;;;;;4986469;28;8876;-80
2022/08/18 07:24:59;;;;;;;;;57.50;45.25;;;;;;;;4991257;28;8894;-78
2022/08/18 07:27:45;;;;;;;;;56.75;45.75;;;;;;;;4987047;28;8980;-79
2022/08/18 07:30:25;;;;;;;;;60.00;48.00;;;;;;;;4979238;28;8931;-79
2022/08/18 07:32:58;;;;;;;;;57.50;45.75;;;;;;;;4977270;28;8896;-80
2022/08/18 07:35:30;;;;;;;;;57.00;45.50;;;;;;;;4979011;28;8888;-77
2022/08/18 07:38:03;;;;;;;;;58.00;46.00;;;;;;;;4977569;28;10278;-79
2022/08/18 07:40:36;;;;;;;;;58.75;46.00;;;;;;;;4986659;28;8844;-80
2022/08/18 07:43:09;;;;;;;;;59.75;48.00;;;;;;;;4986235;28;8872;-79
2022/08/18 07:45:41;;;;;;;;;61.75;50.25;;;;;;;;4981489;28;8888;-79
2022/08/18 07:48:14;;;;;;;;;57.25;46.00;;;;;;;;4982799;28;8880;-78
2022/08/18 07:50:49;;;;;;;;;56.75;45.75;;;;;;;;4987732;28;8852;-77
2022/08/18 07:53:33;;;;;;;;;60.50;47.50;;;;;;;;4984790;28;8868;-79
2022/08/18 07:56:05;;;;;;;;;58.75;48.00;;;;;;;;4984912;28;8913;-81
2022/08/18 07:58:40;;;;;;;;;65.25;50.75;;;;;;;;4989669;28;8879;-77
2022/08/18 08:01:19;;;;;;;;;61.50;49.75;;;;;;;;4997530;28;8847;-77
2022/08/18 08:03:52;;;;;;;;;62.75;48.50;;;;;;;;5002242;28;8988;-77
2022/08/18 08:06:27;;;;;;;;;55.25;46.25;;;;;;;;4999323;28;8888;-76
2022/08/18 08:09:03;;;;;;;;;59.25;46.75;;;;;;;;4993654;28;8859;-78
2022/08/18 08:11:39;;;;;;;;;60.25;49.50;;;;;;;;5001904;28;8856;-78
2022/08/18 08:14:30;;;;;;;;;57.00;47.00;;;;;;;;4997987;28;8996;-76
2022/08/18 08:17:04;;;;;;;;;58.25;46.25;;;;;;;;4991871;28;8867;-76
2022/08/18 08:19:48;;;;;;;;;59.25;45.75;;;;;;;;4997522;28;8896;-76
2022/08/18 08:22:21;;;;;;;;;57.00;45.25;;;;;;;;4998701;28;8876;-77
2022/08/18 08:24:56;;;;;;;;;54.00;45.25;;;;;;;;4999785;28;8896;-75
2022/08/18 08:27:30;;;;;;;;;60.25;50.00;;;;;;;;4999185;28;8872;-76
2022/08/18 08:30:06;;;;;;;;;59.50;48.00;;;;;;;;5000120;28;8934;-74
2022/08/18 08:32:35;;;;;;;;;52.25;44.50;;;;;;;;4998268;28;8817;-75
2022/08/18 08:35:07;;;;;;;;;62.75;46.75;;;;;;;;4996040;28;8853;-75
2022/08/18 08:37:41;;;;;;;;;65.25;51.25;;;;;;;;4997876;28;8892;-75
2022/08/18 08:40:17;;;;;;;;;53.50;44.00;;;;;;;;4999917;28;8895;-75
2022/08/18 08:42:51;;;;;;;;;58.25;47.00;;;;;;;;4997444;28;8974;-82
2022/08/18 08:45:27;;;;;;;;;58.50;45.50;;;;;;;;4997869;28;9756;-77
2022/08/18 08:48:04;;;;;;;;;55.00;43.75;;;;;;;;4990876;28;8900;-79
2022/08/18 08:50:41;;;;;;;;;62.00;49.25;;;;;;;;4999621;28;8915;-77
2022/08/18 08:53:13;;;;;;;;;56.00;45.75;;;;;;;;4996350;28;8883;-77
2022/08/18 08:55:47;;;;;;;;;55.50;45.25;;;;;;;;4998569;28;8883;-78
2022/08/18 08:58:24;;;;;;;;;48.75;41.00;;;;;;;;4998517;28;8864;-77
2022/08/18 09:00:55;;;;;;;;;53.25;43.25;;;;;;;;4999510;28;8821;-76
2022/08/18 09:03:36;;;;;;;;;55.00;44.75;;;;;;;;4991999;28;8880;-77
2022/08/18 09:06:14;;;;;;;;;54.75;44.25;;;;;;;;4991786;28;8836;-76
2022/08/18 09:09:11;;;;;;;;;50.25;40.25;;;;;;;;4998134;28;8876;-76
2022/08/18 09:12:03;;;;;;;;;51.50;42.25;;;;;;;;5000632;28;8880;-75
2022/08/18 09:14:52;;;;;;;;;50.25;42.50;;;;;;;;4998088;28;8864;-76
2022/08/18 09:17:43;;;;;;;;;56.75;44.50;;;;;;;;4998764;28;8868;-75
2022/08/18 09:20:39;;;;;;;;;54.75;46.50;;;;;;;;4998948;28;8879;-77
2022/08/18 09:23:09;;;;;;;;;57.00;45.50;;;;;;;;4999232;28;8868;-76
2022/08/18 09:25:46;;;;;;;;;52.75;41.50;;;;;;;;4998257;28;9666;-75
2022/08/18 09:28:18;;;;;;;;;53.25;44.50;;;;;;;;5001356;28;8966;-74
2022/08/18 09:30:50;;;;;;;;;52.25;43.00;;;;;;;;5001718;28;8816;-75
2022/08/18 09:33:30;;;;;;;;;52.25;41.75;;;;;;;;4998356;28;8942;-75
2022/08/18 09:36:14;;;;;;;;;52.75;44.00;;;;;;;;4994895;28;8991;-75
2022/08/18 09:41:44;;;;;;;;;50.00;40.25;;;;;;;;4994725;28;8833;-75
2022/08/18 09:44:13;;;;;;;;;54.75;44.50;;;;;;;;4999119;28;8844;-74
2022/08/18 09:46:58;;;;;;;;;52.25;42.75;;;;;;;;4998056;28;8868;-75
2022/08/18 09:49:41;;;;;;;;;50.75;43.00;;;;;;;;4997650;28;8879;-74
2022/08/18 09:55:57;;;;;;;;;53.00;41.60;;;;;;;;4980557;28;8892;-76
2022/08/18 09:58:55;;;;;;;;;46.80;39.00;;;;;;;;4991757;28;8982;-76
2022/08/18 10:01:41;;;;;;;;;45.20;38.00;;;;;;;;4994082;28;9618;-77
2022/08/18 10:04:29;;;;;;;;;52.60;43.20;;;;;;;;4997346;28;8890;-75
2022/08/18 10:07:19;;;;;;;;;49.60;40.00;;;;;;;;4998187;28;9630;-76
2022/08/18 10:10:08;;;;;;;;;50.60;42.00;;;;;;;;4999203;28;8880;-77
2022/08/18 10:13:04;;;;;;;;;54.20;42.60;;;;;;;;4999132;28;9670;-77
2022/08/18 10:15:41;;;;;;;;;50.80;42.20;;;;;;;;5001942;28;8876;-76
2022/08/18 10:18:50;;;;;;;;;48.60;38.60;;;;;;;;4998857;28;8935;-77
2022/08/18 10:21:21;;;;;;;;;47.80;40.80;;;;;;;;4995833;28;8996;-78
2022/08/18 10:23:55;;;;;;;;;52.20;41.60;;;;;;;;4998861;28;8887;-75
2022/08/18 10:27:18;;;;;;;;;48.00;40.40;;;;;;;;5002682;28;8884;-78
2022/08/18 10:29:55;;;;;;;;;49.40;41.00;;;;;;;;4959745;28;8903;-86
2022/08/18 10:32:44;;;;;;;;;42.60;37.20;;;;;;;;4982662;28;8863;-81
2022/08/18 10:35:51;;;;;;;;;44.80;37.40;;;;;;;;4982600;28;8889;-82
2022/08/18 10:38:36;;;;;;;;;51.60;43.00;;;;;;;;4982566;28;8850;-80
2022/08/18 10:41:09;;;;;;;;;47.00;39.20;;;;;;;;4981989;28;8887;-79
2022/08/18 10:43:41;;;;;;;;;46.20;39.80;;;;;;;;4983499;28;8889;-85
2022/08/18 10:46:17;;;;;;;;;42.60;36.00;;;;;;;;4984957;28;8904;-81
2022/08/18 10:48:44;;;;;;;;;47.80;41.00;;;;;;;;4983442;28;8879;-78
2022/08/18 10:51:18;;;;;;;;;47.40;38.80;;;;;;;;4983672;28;8873;-80
2022/08/18 10:53:53;;;;;;;;;49.80;42.80;;;;;;;;4979270;28;8871;-79
2022/08/18 10:56:30;;;;;;;;;50.00;40.80;;;;;;;;4982128;28;8889;-81
2022/08/18 10:59:14;;;;;;;;;47.40;38.60;;;;;;;;4978855;28;8925;-79
2022/08/18 11:01:53;;;;;;;;;47.40;40.00;;;;;;;;4982043;28;8823;-80
2022/08/18 11:04:28;;;;;;;;;40.60;33.40;;;;;;;;4980147;28;8873;-81
2022/08/18 11:07:05;;;;;;;;;52.60;42.80;;;;;;;;4975214;28;8878;-79
2022/08/18 11:09:33;;;;;;;;;43.40;37.40;;;;;;;;4982552;28;8898;-80
2022/08/18 11:12:04;;;;;;;;;48.60;39.40;;;;;;;;4981394;28;9032;-78
2022/08/18 11:15:01;;;;;;;;;47.40;39.00;;;;;;;;4980352;28;9026;-78
2022/08/18 11:17:37;;;;;;;;;47.40;36.60;;;;;;;;4980273;28;8892;-79
2022/08/18 11:20:08;;;;;;;;;47.40;38.80;;;;;;;;4981756;28;8886;-77
2022/08/18 11:22:36;;;;;;;;;52.20;43.60;;;;;;;;4977274;28;8892;-78
2022/08/18 11:25:23;;;;;;;;;47.20;38.80;;;;;;;;4975938;28;9236;-76
2022/08/18 11:27:52;;;;;;;;;44.40;37.40;;;;;;;;4971484;28;8921;-76
2022/08/18 11:30:20;;;;;;;;;43.80;35.80;;;;;;;;4976664;28;8854;-76
2022/08/18 11:32:49;;;;;;;;;41.20;34.80;;;;;;;;4971596;28;8906;-78
2022/08/18 11:35:19;;;;;;;;;46.80;39.00;;;;;;;;4974051;28;9710;-79
2022/08/18 11:37:50;;;;;;;;;41.60;31.80;;;;;;;;4976728;28;8871;-90
2022/08/18 11:40:43;;;;;;;;;40.40;34.20;;;;;;;;4979974;28;8898;-81
2022/08/18 11:43:16;;;;;;;;;39.80;32.40;;;;;;;;4959522;28;8889;-79
2022/08/18 11:45:52;;;;;;;;;31.40;29.00;;;;;;;;4978184;28;9764;-83
2022/08/18 11:48:28;;;;;;;;;40.60;35.00;;;;;;;;4974621;28;9824;-82
2022/08/18 11:51:01;;;;;;;;;33.60;31.60;;;;;;;;4978233;28;8881;-85
2022/08/18 11:53:42;;;;;;;;;39.00;32.60;;;;;;;;4979253;28;8890;-82
2022/08/18 11:56:18;;;;;;;;;36.20;31.00;;;;;;;;4976335;28;8873;-85
2022/08/18 11:58:52;;;;;;;;;31.20;29.00;;;;;;;;4970296;28;8898;-82
2022/08/18 12:01:36;;;;;;;;;36.40;33.20;;;;;;;;4977787;28;9025;-87
2022/08/18 12:04:22;;;;;;;;;33.40;29.00;;;;;;;;4978342;28;8900;-83
2022/08/18 12:07:01;;;;;;;;;28.20;28.00;;;;;;;;4976388;28;8859;-79
2022/08/18 12:09:35;;;;;;;;;30.80;29.20;;;;;;;;4977885;28;8867;-82
2022/08/18 12:12:07;;;;;;;;;30.80;29.80;;;;;;;;4977174;28;8993;-81
2022/08/18 12:14:55;;;;;;;;;27.00;27.00;;;;;;;;4974305;28;8871;-80
2022/08/18 12:17:23;;;;;;;;;25.60;23.80;;;;;;;;4975702;28;8906;-79
2022/08/18 12:19:51;;;;;;;;;21.40;20.40;;;;;;;;4978591;28;8875;-84
2022/08/18 12:22:22;;;;;;;;;22.40;21.60;;;;;;;;4979837;28;8879;-80
2022/08/18 12:24:49;;;;;;;;;22.60;21.80;;;;;;;;4982335;28;8953;-82
2022/08/18 12:27:19;;;;;;;;;23.40;21.40;;;;;;;;4975805;28;8865;-81
2022/08/18 12:29:46;;;;;;;;;18.80;16.40;;;;;;;;4976370;28;8909;-80
2022/08/18 12:32:15;;;;;;;;;21.80;20.00;;;;;;;;4973900;28;8794;-81
2022/08/18 12:34:43;;;;;;;;;18.40;16.80;;;;;;;;4971759;28;8857;-84
2022/08/18 12:37:10;;;;;;;;;19.00;19.00;;;;;;;;4969475;28;8973;-81
2022/08/18 12:39:38;;;;;;;;;16.80;14.80;;;;;;;;4976390;28;8879;-78
2022/08/18 12:42:06;;;;;;;;;12.20;12.20;;;;;;;;4976694;28;8956;-79
2022/08/18 12:44:33;;;;;;;;;14.20;13.00;;;;;;;;4977322;28;8910;-80
2022/08/18 12:47:02;;;;;;;;;5.00;5.00;;;;;;;;4984526;28;8985;-76
2022/08/18 12:49:31;;;;;;;;;6.60;6.00;;;;;;;;4985986;28;8851;-77
2022/08/18 12:51:58;;;;;;;;;7.60;6.20;;;;;;;;4977246;28;8871;-81
2022/08/18 12:54:25;;;;;;;;;10.60;10.60;;;;;;;;4978726;28;8885;-79
2022/08/18 12:56:54;;;;;;;;;16.00;14.20;;;;;;;;4980779;28;8886;-78
2022/08/18 12:59:22;;;;;;;;;12.00;12.00;;;;;;;;4982802;28;8883;-81
2022/08/18 13:01:49;;;;;;;;;10.40;10.40;;;;;;;;4977478;28;8859;-80
2022/08/18 13:04:20;;;;;;;;;13.60;12.00;;;;;;;;4972783;28;8893;-79
2022/08/18 13:06:52;;;;;;;;;8.80;8.80;;;;;;;;4979802;28;8910;-81
2022/08/18 13:09:19;;;;;;;;;9.00;6.20;;;;;;;;4978503;28;8967;-80
2022/08/18 13:11:49;;;;;;;;;8.40;8.40;;;;;;;;4972335;28;8890;-80
2022/08/18 13:14:20;;;;;;;;;9.00;9.00;;;;;;;;4976496;28;9689;-79
2022/08/18 13:16:48;;;;;;;;;7.60;7.60;;;;;;;;4980631;28;8867;-77
2022/08/18 13:19:15;;;;;;;;;6.00;6.00;;;;;;;;4975490;28;8861;-81
2022/08/18 13:21:43;;;;;;;;;7.40;6.60;;;;;;;;4974113;28;8988;-80
2022/08/18 13:24:11;;;;;;;;;5.80;5.80;;;;;;;;4979711;28;8869;-82
2022/08/18 13:26:43;;;;;;;;;8.00;8.00;;;;;;;;4975871;28;9034;-81
2022/08/18 13:29:10;;;;;;;;;9.00;9.00;;;;;;;;4977320;28;8868;-81
2022/08/18 13:31:38;;;;;;;;;8.40;8.40;;;;;;;;4976334;28;8865;-80
2022/08/18 13:34:07;;;;;;;;;5.00;5.00;;;;;;;;4977992;28;8873;-76
2022/08/18 13:36:44;;;;;;;;;7.20;7.20;;;;;;;;4964886;28;8881;-78
2022/08/18 13:39:13;;;;;;;;;6.80;6.80;;;;;;;;4973621;28;8887;-81
2022/08/18 13:41:42;;;;;;;;;5.00;5.00;;;;;;;;4975761;28;8859;-80
2022/08/18 13:44:10;;;;;;;;;7.40;7.40;;;;;;;;4977673;28;8997;-83
2022/08/18 13:46:44;;;;;;;;;8.60;6.60;;;;;;;;4974795;28;9005;-81
2022/08/18 13:49:12;;;;;;;;;7.60;7.60;;;;;;;;4978578;28;8913;-81
2022/08/18 13:51:41;;;;;;;;;9.00;7.80;;;;;;;;4977468;28;8887;-80
2022/08/18 13:54:09;;;;;;;;;7.20;7.20;;;;;;;;4971593;28;8903;-80
2022/08/18 13:56:38;;;;;;;;;8.80;7.80;;;;;;;;4979220;28;9036;-80
2022/08/18 13:59:06;;;;;;;;;6.80;6.80;;;;;;;;4978822;28;8885;-80
2022/08/18 14:01:33;;;;;;;;;8.80;8.80;;;;;;;;4974969;28;9691;-76
2022/08/18 14:04:00;;;;;;;;;7.60;7.60;;;;;;;;4982182;28;9640;-78
2022/08/18 14:06:28;;;;;;;;;8.60;8.60;;;;;;;;4983065;28;8877;-77
2022/08/18 14:08:55;;;;;;;;;11.40;9.60;;;;;;;;4979529;28;8903;-78
2022/08/18 14:11:26;;;;;;;;;11.20;11.20;;;;;;;;4972821;28;8877;-79
2022/08/18 14:13:56;;;;;;;;;8.00;7.60;;;;;;;;4981071;28;8883;-81
2022/08/18 14:16:23;;;;;;;;;8.20;8.20;;;;;;;;4981192;28;8860;-82
2022/08/18 14:26:57;;;;;;;;;5.80;5.80;;;;;;;;4966247;28;8874;-78
2022/08/18 14:29:26;;;;;;;;;5.60;5.60;;;;;;;;4976247;28;8882;-77
2022/08/18 14:31:54;;;;;;;;;7.00;7.00;;;;;;;;4972119;28;8864;-82
2022/08/18 14:34:21;;;;;;;;;8.40;5.40;;;;;;;;4976993;28;8882;-82
2022/08/18 14:36:48;;;;;;;;;7.60;6.00;;;;;;;;4978001;28;8867;-78
2022/08/18 14:39:16;;;;;;;;;6.00;6.00;;;;;;;;4979699;28;8907;-81
2022/08/18 14:41:43;;;;;;;;;6.00;6.00;;;;;;;;4980821;28;8913;-80
2022/08/18 14:44:12;;;;;;;;;7.80;7.80;;;;;;;;4968520;28;8924;-78
2022/08/18 14:46:46;;;;;;;;;6.80;6.80;;;;;;;;4962622;28;8898;-81
2022/08/18 14:49:13;;;;;;;;;8.40;7.00;;;;;;;;4979086;28;8855;-78
2022/08/18 14:51:41;;;;;;;;;6.00;6.00;;;;;;;;4974798;28;9631;-80
2022/08/18 14:54:09;;;;;;;;;9.60;8.00;;;;;;;;4978459;28;8871;-80
2022/08/18 14:56:37;;;;;;;;;9.40;7.60;;;;;;;;4979552;28;8894;-78
2022/08/18 14:59:06;;;;;;;;;7.00;7.00;;;;;;;;4977219;28;9579;-78
2022/08/18 15:01:34;;;;;;;;;8.20;6.80;;;;;;;;4972781;28;9762;-80
2022/08/18 15:04:03;;;;;;;;;6.00;6.00;;;;;;;;4983606;28;8906;-78
2022/08/18 15:06:31;;;;;;;;;7.00;6.00;;;;;;;;4980931;28;9022;-83
2022/08/18 15:08:58;;;;;;;;;6.00;6.00;;;;;;;;4986104;28;8914;-80
2022/08/18 15:11:25;;;;;;;;;9.60;7.80;;;;;;;;4976020;28;9256;-79
2022/08/18 15:13:53;;;;;;;;;6.40;6.40;;;;;;;;4979046;28;9674;-78
2022/08/18 15:16:21;;;;;;;;;5.80;5.80;;;;;;;;4976996;28;8906;-79
2022/08/18 15:18:51;;;;;;;;;6.20;6.20;;;;;;;;4978153;28;8877;-79
2022/08/18 15:26:54;;;;;;;;;9.00;9.00;;;;;;;;4976074;28;8833;-79
2022/08/18 15:29:22;;;;;;;;;12.40;10.60;;;;;;;;4974331;28;8877;-80
2022/08/18 15:31:50;;;;;;;;;10.40;10.40;;;;;;;;4977640;28;8813;-80
2022/08/18 15:34:18;;;;;;;;;8.00;8.00;;;;;;;;4974483;28;8989;-80
2022/08/18 15:36:47;;;;;;;;;9.80;9.40;;;;;;;;4972096;28;8871;-79